createdAt,value
2022-08-26T00:03:45.981Z,24.35
2022-08-26T00:08:45.216Z,24.31
2022-08-26T00:13:47.850Z,24.53
2022-08-26T00:18:44.563Z,24.65
2022-08-26T00:23:42.752Z,24.77
2022-08-26T00:28:41.973Z,24.61
2022-08-26T00:33:41.201Z,24.77
2022-08-26T00:38:41.479Z,24.71
2022-08-26T00:43:46.343Z,24.30
2022-08-26T00:48:38.923Z,24.73
2022-08-26T00:53:39.138Z,24.64
2022-08-26T00:58:37.388Z,24.73
2022-08-26T01:03:36.753Z,24.77
2022-08-26T01:08:37.934Z,24.53
2022-08-26T01:13:35.131Z,24.73
2022-08-26T01:18:36.453Z,24.73
2022-08-26T01:23:35.725Z,24.39
2022-08-26T01:28:33.026Z,24.52
2022-08-26T01:33:39.995Z,24.35
2022-08-26T01:38:32.651Z,24.61
2022-08-26T01:43:30.782Z,24.61
2022-08-26T01:48:29.927Z,24.50
2022-08-26T01:53:29.251Z,24.57
2022-08-26T01:58:28.585Z,24.64
2022-08-26T02:03:28.954Z,24.45
2022-08-26T02:08:28.208Z,23.66
2022-08-26T02:13:28.542Z,24.55
2022-08-26T02:18:25.613Z,24.62
2022-08-26T02:23:25.161Z,24.39
2022-08-26T02:28:26.748Z,24.53
2022-08-26T02:33:24.467Z,24.50
2022-08-26T02:38:24.593Z,24.50
2022-08-26T02:43:31.665Z,23.42
2022-08-26T02:48:22.115Z,23.63
2022-08-26T02:53:25.418Z,23.88
2022-08-26T02:58:20.592Z,23.58
2022-08-26T03:03:19.760Z,24.25
2022-08-26T03:08:20.037Z,24.31
2022-08-26T03:13:17.363Z,23.38
2022-08-26T03:18:16.660Z,22.33
2022-08-26T03:23:15.995Z,23.72
2022-08-26T03:28:15.361Z,23.80
2022-08-26T03:33:14.537Z,23.87
2022-08-26T03:38:13.852Z,24.18
2022-08-26T03:43:13.316Z,23.78
2022-08-26T03:48:13.449Z,22.46
2022-08-26T03:53:13.213Z,21.12
2022-08-26T03:58:11.048Z,21.37
2022-08-26T04:03:14.649Z,22.10
2022-08-26T04:08:10.479Z,21.10
2022-08-26T04:13:10.640Z,20.64
2022-08-26T04:18:07.899Z,21.27
2022-08-26T04:23:07.246Z,20.08
2022-08-26T04:28:07.281Z,20.50
2022-08-26T04:33:12.764Z,20.01
2022-08-26T04:38:05.885Z,19.31
2022-08-26T04:43:04.849Z,19.32
2022-08-26T04:48:03.146Z,19.54
2022-08-26T04:53:03.362Z,19.46
2022-08-26T04:58:01.560Z,19.84
2022-08-26T05:03:00.764Z,19.19
2022-08-26T05:07:59.814Z,18.81
2022-08-26T05:12:58.991Z,18.54
2022-08-26T05:17:58.161Z,18.70
2022-08-26T05:22:58.332Z,19.22
2022-08-26T05:27:55.629Z,18.87
2022-08-26T05:32:55.981Z,19.36
2022-08-26T05:37:55.103Z,19.21
2022-08-26T05:42:54.297Z,19.29
2022-08-26T05:47:53.435Z,19.76
2022-08-26T05:52:52.563Z,19.99
2022-08-26T05:57:51.889Z,19.86
2022-08-26T06:02:53.102Z,19.99
2022-08-26T06:07:50.423Z,20.43
2022-08-26T06:12:49.529Z,20.67
2022-08-26T06:17:48.664Z,21.01
2022-08-26T06:22:47.927Z,21.44
2022-08-26T06:27:47.101Z,22.12
2022-08-26T06:32:49.427Z,22.17
2022-08-26T06:37:45.602Z,22.72
2022-08-26T06:42:44.710Z,22.61
2022-08-26T06:47:43.870Z,23.19
2022-08-26T06:52:44.008Z,23.28
2022-08-26T06:57:43.333Z,23.38
2022-08-26T07:02:46.838Z,23.27
2022-08-26T07:07:40.845Z,23.27
2022-08-26T07:12:40.123Z,23.79
2022-08-26T07:17:40.257Z,23.73
2022-08-26T07:22:38.371Z,23.95
2022-08-26T07:27:38.615Z,23.48
2022-08-26T07:32:36.995Z,24.10
2022-08-26T07:37:39.209Z,24.03
2022-08-26T07:42:35.341Z,24.31
2022-08-26T07:47:34.541Z,24.03
2022-08-26T07:52:33.774Z,24.40
2022-08-26T07:57:32.971Z,24.43
2022-08-26T08:02:33.257Z,24.45
2022-08-26T08:07:44.656Z,24.65
2022-08-26T08:12:31.546Z,24.71
2022-08-26T08:17:29.845Z,24.80
2022-08-26T08:22:29.171Z,24.95
2022-08-26T08:27:28.518Z,24.93
2022-08-26T08:32:27.633Z,25.00
2022-08-26T08:37:27.910Z,25.05
2022-08-26T08:42:26.176Z,25.06
2022-08-26T08:47:25.350Z,25.08
2022-08-26T08:52:25.464Z,25.00
2022-08-26T08:57:23.775Z,25.09
2022-08-26T09:02:23.144Z,25.14
2022-08-26T09:07:23.229Z,25.00
2022-08-26T09:12:29.466Z,25.10
2022-08-26T09:17:21.577Z,25.24
2022-08-26T09:22:19.858Z,25.36
2022-08-26T09:27:19.140Z,25.42
2022-08-26T09:32:17.487Z,25.24
2022-08-26T09:37:17.876Z,25.23
2022-08-26T09:42:17.197Z,25.23
2022-08-26T09:47:16.535Z,25.33
2022-08-26T09:52:17.747Z,25.27
2022-08-26T09:57:15.848Z,25.40
2022-08-26T10:02:14.166Z,25.50
2022-08-26T10:07:13.392Z,25.55
2022-08-26T10:12:12.749Z,25.58
2022-08-26T10:17:11.914Z,25.61
2022-08-26T10:22:12.034Z,25.70
2022-08-26T10:27:10.235Z,25.77
2022-08-26T10:32:13.823Z,25.85
2022-08-26T10:37:14.525Z,25.99
2022-08-26T10:42:07.898Z,25.97
2022-08-26T10:47:07.195Z,25.98
2022-08-26T10:52:05.308Z,26.10
2022-08-26T10:57:05.481Z,26.17
2022-08-26T11:02:04.076Z,26.18
2022-08-26T11:07:03.979Z,26.21
2022-08-26T11:12:10.036Z,26.36
2022-08-26T11:17:02.383Z,26.35
2022-08-26T11:22:01.480Z,26.55
2022-08-26T11:27:00.681Z,26.44
2022-08-26T11:32:01.060Z,26.45
2022-08-26T11:36:59.158Z,26.40
2022-08-26T11:41:58.515Z,26.44
2022-08-26T11:46:58.821Z,26.48
2022-08-26T11:51:58.227Z,26.62
2022-08-26T11:56:57.296Z,26.72
2022-08-26T12:01:55.616Z,26.84
2022-08-26T12:06:54.927Z,26.87
2022-08-26T12:11:58.014Z,26.73
2022-08-26T12:16:55.561Z,26.88
2022-08-26T12:21:52.835Z,26.92
2022-08-26T12:26:52.145Z,27.03
2022-08-26T12:31:51.476Z,26.85
2022-08-26T12:36:51.732Z,26.99
2022-08-26T12:41:49.828Z,27.03
2022-08-26T12:46:49.854Z,27.03
2022-08-26T12:51:49.437Z,26.95
2022-08-26T12:56:48.811Z,26.95
2022-08-26T13:01:47.999Z,27.02
2022-08-26T13:06:47.151Z,27.06
2022-08-26T13:11:45.476Z,27.07
2022-08-26T13:16:44.641Z,27.09
2022-08-26T13:21:45.791Z,27.06
2022-08-26T13:26:44.137Z,27.04
2022-08-26T13:31:42.321Z,27.22
2022-08-26T13:36:42.473Z,27.14
2022-08-26T13:41:40.621Z,27.19
2022-08-26T13:46:40.865Z,27.54
2022-08-26T13:51:39.095Z,27.49
2022-08-26T13:56:38.242Z,27.55
2022-08-26T14:01:37.383Z,27.41
2022-08-26T14:06:36.523Z,27.39
2022-08-26T14:11:54.131Z,27.41
2022-08-26T14:16:34.919Z,27.55
2022-08-26T14:21:34.085Z,27.50
2022-08-26T14:26:33.214Z,27.47
2022-08-26T14:31:34.385Z,27.46
2022-08-26T14:36:33.525Z,27.54
2022-08-26T14:41:30.658Z,27.62
2022-08-26T14:46:30.241Z,27.51
2022-08-26T14:51:29.302Z,27.43
2022-08-26T14:56:28.456Z,27.27
2022-08-26T15:01:30.891Z,27.24
2022-08-26T15:06:26.865Z,27.21
2022-08-26T15:11:26.018Z,27.22
2022-08-26T15:16:24.383Z,27.34
2022-08-26T15:21:23.451Z,27.57
2022-08-26T15:26:24.612Z,27.63
2022-08-26T15:31:23.811Z,27.51
2022-08-26T15:36:21.955Z,27.41
2022-08-26T15:41:21.272Z,27.27
2022-08-26T15:46:21.637Z,27.09
2022-08-26T15:51:19.763Z,26.97
2022-08-26T15:56:20.091Z,26.89
2022-08-26T16:01:18.484Z,26.82
2022-08-26T16:06:17.686Z,26.87
2022-08-26T16:11:16.893Z,26.88
2022-08-26T16:16:16.096Z,26.50
2022-08-26T16:21:16.278Z,26.54
2022-08-26T16:26:15.412Z,26.66
2022-08-26T16:31:13.854Z,26.37
2022-08-26T16:36:13.016Z,26.45
2022-08-26T16:41:12.159Z,26.58
2022-08-26T16:46:12.355Z,26.62
2022-08-26T16:51:09.585Z,26.02
2022-08-26T16:56:10.738Z,25.50
2022-08-26T17:01:08.878Z,25.64
2022-08-26T17:06:08.088Z,25.80
2022-08-26T17:11:07.223Z,25.61
2022-08-26T17:16:07.460Z,25.36
2022-08-26T17:21:06.687Z,25.20
2022-08-26T17:26:05.909Z,25.17
2022-08-26T17:31:04.039Z,24.99
2022-08-26T17:36:03.196Z,24.68
2022-08-26T17:41:01.378Z,24.57
2022-08-26T17:46:06.991Z,24.62
2022-08-26T17:51:01.760Z,24.28
2022-08-26T17:56:02.066Z,24.32
2022-08-26T18:01:01.260Z,23.88
2022-08-26T18:05:58.354Z,23.58
2022-08-26T18:10:58.677Z,23.00
2022-08-26T18:15:59.139Z,23.79
2022-08-26T18:21:01.382Z,24.02
2022-08-26T18:25:56.489Z,24.31
2022-08-26T18:30:57.469Z,25.09
2022-08-26T18:35:54.004Z,24.10
2022-08-26T18:40:54.132Z,24.42
2022-08-26T18:45:52.356Z,24.80
2022-08-26T18:50:55.159Z,24.62
2022-08-26T18:55:52.833Z,24.98
2022-08-26T19:00:51.369Z,24.09
2022-08-26T19:05:49.438Z,22.92
2022-08-26T19:10:49.592Z,20.94
2022-08-26T19:15:47.897Z,21.25
2022-08-26T19:20:49.279Z,23.78
2022-08-26T19:25:47.484Z,22.95
2022-08-26T19:30:46.026Z,24.16
2022-08-26T19:35:44.860Z,24.00
2022-08-26T19:40:44.066Z,21.67
2022-08-26T19:45:45.304Z,22.57
2022-08-26T19:50:43.632Z,20.95
2022-08-26T19:55:42.913Z,19.08
2022-08-26T20:00:41.160Z,18.78
2022-08-26T20:05:40.394Z,18.85
2022-08-26T20:10:41.680Z,19.13
2022-08-26T20:15:38.974Z,19.76
2022-08-26T20:20:39.797Z,21.17
2022-08-26T20:25:37.987Z,20.77
2022-08-26T20:30:35.459Z,20.24
2022-08-26T20:35:35.693Z,20.11
2022-08-26T20:40:35.804Z,21.62
2022-08-26T20:45:34.116Z,20.47
2022-08-26T20:50:33.353Z,20.13
2022-08-26T20:55:32.611Z,20.03
2022-08-26T21:00:31.823Z,19.99
2022-08-26T21:05:31.037Z,19.91
2022-08-26T21:10:31.297Z,19.91
2022-08-26T21:15:29.547Z,19.69
2022-08-26T21:20:29.904Z,19.73
2022-08-26T21:25:29.175Z,19.94
2022-08-26T21:30:26.392Z,19.63
2022-08-26T21:35:25.683Z,19.61
2022-08-26T21:40:26.943Z,19.44
2022-08-26T21:45:26.238Z,19.56
2022-08-26T21:50:24.541Z,19.69
2022-08-26T21:55:24.743Z,19.33
2022-08-26T22:00:22.948Z,19.44
2022-08-26T22:05:23.157Z,19.73
2022-08-26T22:10:22.356Z,19.92
2022-08-26T22:15:20.634Z,19.73
2022-08-26T22:20:20.876Z,19.69
2022-08-26T22:25:20.041Z,19.76
2022-08-26T22:30:18.210Z,19.86
2022-08-26T22:35:29.101Z,19.76
2022-08-26T22:40:15.840Z,19.98
2022-08-26T22:45:17.059Z,20.01
2022-08-26T22:50:16.238Z,19.88
2022-08-26T22:55:15.433Z,19.92
2022-08-26T23:00:13.651Z,20.21
2022-08-26T23:05:12.900Z,20.28
2022-08-26T23:10:12.107Z,19.80
2022-08-26T23:15:11.328Z,19.98
2022-08-26T23:20:11.544Z,20.14
2022-08-26T23:25:10.038Z,19.59
2022-08-26T23:30:09.091Z,19.96
2022-08-26T23:35:08.316Z,19.61
2022-08-26T23:40:08.662Z,19.74
2022-08-26T23:45:07.926Z,20.02
2022-08-26T23:50:08.271Z,19.73
2022-08-26T23:55:05.559Z,19.81
